Terminal Aerodrome Forecast
Issued by NWS

Home | Current Version | Previous Version | Text Only | Print | Product List | Glossary Off
Versions: 1 2 3 4 5 6 7 8 9 10 11 12 13 14

000
FTUS42 KMHX 181417 AAA
TAFOAJ
TAF AMD
KOAJ 181417Z 1814/1912 20005KT P6SM OVC020
     FM182000 VRB04KT P6SM SCT025
     FM182300 24005KT P6SM SCT025 BKN200
     FM190900 00000KT 3SM BR BKN050
      AMD LTD TO CLD VIS AND WIND=

USA.gov is the U.S. government's official web portal to all federal, state and local government web resources and services.